createdAt,value
2019-01-25T00:00:49.247Z,74.80
2019-01-25T00:03:18.281Z,71.47
2019-01-25T00:05:47.501Z,69.30
2019-01-25T00:08:16.577Z,82.67
2019-01-25T00:10:45.537Z,74.23
2019-01-25T00:13:14.699Z,79.57
2019-01-25T00:15:43.832Z,71.07
2019-01-25T00:18:13.520Z,81.73
2019-01-25T00:20:42.577Z,69.67
2019-01-25T00:23:11.641Z,78.07
2019-01-25T00:25:40.708Z,81.20
2019-01-25T00:28:09.780Z,81.47
2019-01-25T00:30:38.837Z,81.63
2019-01-25T00:33:07.959Z,76.13
2019-01-25T00:35:37.041Z,75.00
2019-01-25T00:38:06.381Z,76.10
2019-01-25T00:40:35.439Z,68.93
2019-01-25T00:43:04.792Z,78.10
2019-01-25T00:45:33.766Z,69.90
2019-01-25T00:48:03.133Z,63.20
2019-01-25T00:50:32.268Z,77.23
2019-01-25T00:53:01.249Z,77.53
2019-01-25T00:55:30.288Z,72.20
2019-01-25T00:57:59.248Z,75.07
2019-01-25T01:00:28.329Z,74.83
2019-01-25T01:02:57.459Z,77.63
2019-01-25T01:05:26.511Z,71.50
2019-01-25T01:07:55.475Z,68.97
2019-01-25T01:10:24.629Z,70.43
2019-01-25T01:12:54.307Z,67.03
2019-01-25T01:15:23.372Z,64.67
2019-01-25T01:17:52.669Z,74.63
2019-01-25T01:20:22.184Z,70.73
2019-01-25T01:22:51.449Z,76.30
2019-01-25T01:25:20.636Z,75.53
2019-01-25T01:27:49.679Z,70.77
2019-01-25T01:30:25.064Z,73.13
2019-01-25T01:32:54.595Z,74.30
2019-01-25T01:35:23.931Z,74.93
2019-01-25T01:37:53.224Z,73.60
2019-01-25T01:40:24.220Z,71.87
2019-01-25T01:42:53.866Z,72.83
2019-01-25T01:45:23.145Z,70.57
2019-01-25T01:47:52.271Z,74.93
2019-01-25T01:50:21.609Z,73.87
2019-01-25T01:52:51.533Z,73.17
2019-01-25T01:55:20.514Z,72.37
2019-01-25T01:58:08.884Z,66.47
2019-01-25T02:00:37.776Z,76.97
2019-01-25T02:03:06.867Z,67.90
2019-01-25T02:05:35.892Z,67.03
2019-01-25T02:08:05.461Z,68.50
2019-01-25T02:10:34.682Z,68.73
2019-01-25T02:13:03.865Z,73.00
2019-01-25T02:15:33.059Z,74.60
2019-01-25T02:18:02.193Z,75.13
2019-01-25T02:20:31.615Z,73.63
2019-01-25T02:23:00.797Z,76.80
2019-01-25T02:25:30.021Z,69.17
2019-01-25T02:27:58.973Z,75.67
2019-01-25T02:30:28.390Z,75.80
2019-01-25T02:32:57.499Z,76.23
2019-01-25T02:35:26.649Z,83.17
2019-01-25T02:37:55.841Z,74.20
2019-01-25T02:40:26.066Z,78.87
2019-01-25T02:42:55.423Z,72.97
2019-01-25T02:45:24.793Z,78.50
2019-01-25T02:47:54.217Z,76.90
2019-01-25T02:50:23.277Z,72.23
2019-01-25T02:52:52.491Z,75.50
2019-01-25T02:55:21.630Z,71.67
2019-01-25T02:57:50.952Z,74.10
2019-01-25T03:00:22.561Z,80.17
2019-01-25T03:02:52.150Z,75.63
2019-01-25T03:05:21.819Z,78.47
2019-01-25T03:07:51.180Z,72.33
2019-01-25T03:10:28.212Z,75.80
2019-01-25T03:12:52.485Z,74.73
2019-01-25T03:15:26.070Z,85.97
2019-01-25T03:17:55.424Z,74.70
2019-01-25T03:20:24.675Z,75.97
2019-01-25T03:22:53.938Z,78.97
2019-01-25T03:25:25.229Z,74.40
2019-01-25T03:27:54.320Z,73.33
2019-01-25T03:30:24.831Z,82.43
2019-01-25T03:32:53.955Z,84.77
2019-01-25T03:35:25.390Z,74.20
2019-01-25T03:37:54.814Z,73.47
2019-01-25T03:40:29.856Z,77.70
2019-01-25T03:42:58.889Z,75.43
2019-01-25T03:45:28.392Z,80.17
2019-01-25T03:47:57.524Z,71.03
2019-01-25T03:50:30.767Z,74.63
2019-01-25T03:52:59.895Z,84.50
2019-01-25T03:55:29.377Z,78.57
2019-01-25T03:57:58.509Z,78.03
2019-01-25T04:00:29.324Z,79.30
2019-01-25T04:02:58.965Z,71.23
2019-01-25T04:05:28.127Z,85.73
2019-01-25T04:07:57.239Z,80.67
2019-01-25T04:10:28.191Z,89.53
2019-01-25T04:12:57.309Z,82.00
2019-01-25T04:15:29.044Z,79.93
2019-01-25T04:17:58.156Z,91.73
2019-01-25T04:20:27.355Z,81.93
2019-01-25T04:22:56.389Z,90.00
2019-01-25T04:25:25.676Z,87.50
2019-01-25T04:27:54.732Z,77.97
2019-01-25T04:30:26.007Z,89.77
2019-01-25T04:32:55.234Z,83.07
2019-01-25T04:35:24.681Z,91.00
2019-01-25T04:37:53.944Z,83.97
2019-01-25T04:40:23.272Z,81.27
2019-01-25T04:42:52.890Z,86.70
2019-01-25T04:45:22.071Z,84.63
2019-01-25T04:47:51.707Z,86.77
2019-01-25T04:50:22.587Z,95.20
2019-01-25T04:52:52.584Z,77.07
2019-01-25T04:55:26.347Z,86.80
2019-01-25T04:57:57.315Z,79.37
2019-01-25T05:00:26.385Z,92.00
2019-01-25T05:02:59.991Z,82.40
2019-01-25T05:05:29.490Z,84.53
2019-01-25T05:08:18.582Z,86.37
2019-01-25T05:10:47.595Z,90.03
2019-01-25T05:13:16.593Z,87.47
2019-01-25T05:15:45.587Z,97.73
2019-01-25T05:18:14.782Z,94.37
2019-01-25T05:20:43.804Z,93.63
2019-01-25T05:23:13.204Z,91.90
2019-01-25T05:25:42.287Z,92.93
2019-01-25T05:28:13.574Z,84.93
2019-01-25T05:30:54.668Z,87.07
2019-01-25T05:33:23.658Z,91.83
2019-01-25T05:35:52.842Z,87.87
2019-01-25T05:38:21.824Z,102.70
2019-01-25T05:40:51.215Z,90.83
2019-01-25T05:43:20.160Z,96.50
2019-01-25T05:45:49.223Z,101.00
2019-01-25T05:48:18.105Z,109.07
2019-01-25T05:50:47.034Z,94.03
2019-01-25T05:53:15.909Z,106.13
2019-01-25T05:55:44.778Z,109.20
2019-01-25T05:58:13.675Z,105.90
2019-01-25T06:00:43.683Z,124.57
2019-01-25T06:03:14.595Z,107.33
2019-01-25T06:05:43.602Z,106.13
2019-01-25T06:08:33.532Z,104.73
2019-01-25T06:11:10.739Z,96.10
2019-01-25T06:13:44.135Z,105.50
2019-01-25T06:16:13.285Z,99.43
2019-01-25T06:18:42.280Z,107.70
2019-01-25T06:21:11.811Z,98.47
2019-01-25T06:23:40.780Z,99.93
2019-01-25T06:26:11.222Z,123.40
2019-01-25T06:28:40.161Z,117.77
2019-01-25T06:31:09.266Z,108.83
2019-01-25T06:33:38.107Z,108.73
2019-01-25T06:36:08.172Z,110.83
2019-01-25T06:38:38.053Z,114.07
2019-01-25T06:41:08.117Z,105.57
2019-01-25T06:43:37.153Z,123.50
2019-01-25T06:46:06.410Z,137.77
2019-01-25T06:48:35.459Z,128.50
2019-01-25T06:51:05.346Z,117.90
2019-01-25T06:53:34.475Z,121.57
2019-01-25T06:56:03.466Z,117.53
2019-01-25T07:01:49.139Z,130.67
2019-01-25T07:04:18.221Z,134.93
2019-01-25T07:06:47.209Z,129.77
2019-01-25T07:09:16.440Z,119.63
2019-01-25T07:11:51.466Z,151.13
2019-01-25T07:14:16.239Z,132.63
2019-01-25T07:16:45.231Z,133.10
2019-01-25T07:19:14.112Z,131.10
2019-01-25T07:21:43.005Z,116.23
2019-01-25T07:24:11.959Z,132.20
2019-01-25T07:26:40.831Z,130.97
2019-01-25T07:31:50.381Z,118.40
2019-01-25T07:34:31.372Z,123.80
2019-01-25T07:37:00.318Z,124.20
2019-01-25T07:39:29.536Z,140.77
2019-01-25T07:41:59.580Z,120.40
2019-01-25T07:44:29.657Z,119.67
2019-01-25T07:46:58.678Z,127.70
2019-01-25T07:49:27.665Z,106.13
2019-01-25T07:51:56.757Z,121.43
2019-01-25T07:54:25.871Z,123.23
2019-01-25T07:56:55.094Z,109.87
2019-01-25T07:59:26.353Z,127.00
2019-01-25T08:01:55.616Z,123.17
2019-01-25T08:04:24.588Z,112.87
2019-01-25T08:06:53.608Z,124.37
2019-01-25T08:09:22.548Z,114.47
2019-01-25T08:11:51.669Z,117.93
2019-01-25T08:14:20.745Z,118.37
2019-01-25T08:16:49.692Z,114.80
2019-01-25T08:19:18.587Z,116.57
2019-01-25T08:21:47.536Z,109.27
2019-01-25T08:24:16.383Z,117.83
2019-01-25T08:26:45.413Z,118.17
2019-01-25T08:29:14.687Z,119.67
2019-01-25T08:31:43.793Z,103.17
2019-01-25T08:34:13.020Z,106.53
2019-01-25T08:36:42.049Z,120.77
2019-01-25T08:39:11.123Z,110.13
2019-01-25T08:41:40.227Z,107.73
2019-01-25T08:44:09.243Z,112.50
2019-01-25T08:46:38.170Z,108.53
2019-01-25T08:49:07.807Z,113.90
2019-01-25T08:51:36.799Z,105.93
2019-01-25T08:54:06.128Z,106.00
2019-01-25T08:56:35.218Z,102.33
2019-01-25T08:59:04.648Z,101.77
2019-01-25T09:01:33.569Z,119.17
2019-01-25T09:04:02.419Z,103.00
2019-01-25T09:06:31.352Z,103.83
2019-01-25T09:09:00.371Z,111.50
2019-01-25T09:11:29.356Z,103.20
2019-01-25T09:13:58.222Z,115.77
2019-01-25T09:16:27.247Z,96.07
2019-01-25T09:18:56.235Z,105.53
2019-01-25T09:21:25.269Z,97.37
2019-01-25T09:23:54.122Z,101.57
2019-01-25T09:26:22.970Z,92.57
2019-01-25T09:28:51.862Z,94.83
2019-01-25T09:31:20.723Z,92.03
2019-01-25T09:33:49.697Z,97.63
2019-01-25T09:36:18.609Z,92.17
2019-01-25T09:38:47.558Z,88.40
2019-01-25T09:41:16.558Z,86.90
2019-01-25T09:43:45.407Z,92.10
2019-01-25T09:46:14.482Z,84.83
2019-01-25T09:48:43.390Z,85.37
2019-01-25T09:51:12.410Z,99.03
2019-01-25T09:53:41.247Z,87.87
2019-01-25T09:56:10.163Z,92.67
2019-01-25T09:58:42.981Z,82.53
2019-01-25T10:01:13.263Z,92.33
2019-01-25T10:03:42.093Z,79.90
2019-01-25T10:06:11.021Z,81.47
2019-01-25T10:08:39.911Z,84.13
2019-01-25T10:11:08.946Z,84.30
2019-01-25T10:13:37.811Z,80.63
2019-01-25T10:16:06.762Z,84.20
2019-01-25T10:18:35.691Z,77.83
2019-01-25T10:21:04.788Z,76.73
2019-01-25T10:23:33.654Z,87.50
2019-01-25T10:26:02.585Z,73.03
2019-01-25T10:28:31.403Z,76.07
2019-01-25T10:31:00.383Z,74.87
2019-01-25T10:33:29.404Z,82.43
2019-01-25T10:35:58.509Z,79.30
2019-01-25T10:38:27.618Z,81.33
2019-01-25T10:40:56.541Z,90.33
2019-01-25T10:43:25.462Z,86.47
2019-01-25T10:45:54.402Z,92.33
2019-01-25T10:48:23.309Z,107.87
2019-01-25T10:50:52.256Z,96.37
2019-01-25T10:53:21.167Z,101.23
2019-01-25T10:55:50.175Z,101.93
2019-01-25T10:58:19.170Z,93.57
2019-01-25T11:00:48.174Z,106.67
2019-01-25T11:03:17.008Z,101.33
2019-01-25T11:05:46.010Z,105.50
2019-01-25T11:08:14.919Z,108.37
2019-01-25T11:10:43.815Z,104.10
2019-01-25T11:13:12.745Z,98.53
2019-01-25T11:15:41.823Z,100.50
2019-01-25T11:18:10.900Z,109.57
2019-01-25T11:20:39.983Z,114.00
2019-01-25T11:23:08.830Z,104.73
2019-01-25T11:25:39.113Z,106.60
2019-01-25T11:28:08.040Z,107.37
2019-01-25T11:30:36.960Z,85.03
2019-01-25T11:33:06.067Z,94.53
2019-01-25T11:35:35.089Z,90.90
2019-01-25T11:38:04.626Z,100.60
2019-01-25T11:40:35.770Z,100.17
2019-01-25T11:43:08.780Z,102.27
2019-01-25T11:45:35.709Z,81.10
2019-01-25T11:48:08.649Z,93.70
2019-01-25T11:50:37.623Z,100.90
2019-01-25T11:53:06.634Z,90.67
2019-01-25T11:55:35.543Z,95.27
2019-01-25T11:58:04.594Z,86.83
2019-01-25T12:00:34.572Z,86.30
2019-01-25T12:03:22.622Z,96.73
2019-01-25T12:05:51.803Z,87.80
2019-01-25T12:08:20.824Z,93.60
2019-01-25T12:10:49.843Z,79.20
2019-01-25T12:13:18.776Z,89.57
2019-01-25T12:15:47.605Z,93.97
2019-01-25T12:18:16.557Z,81.10
2019-01-25T12:20:45.448Z,81.47
2019-01-25T12:23:14.342Z,81.53
2019-01-25T12:25:43.346Z,90.77
2019-01-25T12:28:12.191Z,79.00
2019-01-25T12:30:41.147Z,76.10
2019-01-25T12:33:10.705Z,74.90
2019-01-25T12:35:41.801Z,70.90
2019-01-25T12:38:10.804Z,66.97
2019-01-25T12:40:42.052Z,70.77
2019-01-25T12:43:10.619Z,81.43
2019-01-25T12:45:39.598Z,69.17
2019-01-25T12:48:08.728Z,69.97
2019-01-25T12:51:13.654Z,73.47
2019-01-25T12:53:42.622Z,77.77
2019-01-25T12:56:11.589Z,74.20
2019-01-25T12:58:40.531Z,71.70
2019-01-25T13:01:09.997Z,70.40
2019-01-25T13:03:39.220Z,71.03
2019-01-25T13:06:08.230Z,69.80
2019-01-25T13:08:38.136Z,69.40
2019-01-25T13:11:07.120Z,63.80
2019-01-25T13:13:36.231Z,71.60
2019-01-25T13:16:05.440Z,69.60
2019-01-25T13:18:34.569Z,72.67
2019-01-25T13:21:03.478Z,67.20
2019-01-25T13:23:32.427Z,69.00
2019-01-25T13:26:01.409Z,76.43
2019-01-25T13:28:49.527Z,74.23
2019-01-25T13:31:18.580Z,68.97
2019-01-25T13:33:47.467Z,68.03
2019-01-25T13:36:16.720Z,73.77
2019-01-25T13:38:45.584Z,67.50
2019-01-25T13:41:14.499Z,71.40
2019-01-25T13:43:43.380Z,69.67
2019-01-25T13:46:12.269Z,75.63
2019-01-25T13:48:41.255Z,65.70
2019-01-25T13:51:10.142Z,68.70
2019-01-25T13:53:39.094Z,81.70
2019-01-25T13:56:08.002Z,75.50
2019-01-25T13:58:36.927Z,73.10
2019-01-25T14:01:05.975Z,73.33
2019-01-25T14:03:35.015Z,84.83
2019-01-25T14:06:04.251Z,70.07
2019-01-25T14:08:33.149Z,80.33
2019-01-25T14:11:02.155Z,83.67
2019-01-25T14:13:34.162Z,72.83
2019-01-25T14:16:01.775Z,87.17
2019-01-25T14:18:30.646Z,87.70
2019-01-25T14:20:59.488Z,92.83
2019-01-25T14:23:28.326Z,75.03
2019-01-25T14:25:57.223Z,82.57
2019-01-25T14:28:26.154Z,87.07
2019-01-25T14:30:55.111Z,82.50
2019-01-25T14:33:23.937Z,83.07
2019-01-25T14:35:52.962Z,79.53
2019-01-25T14:38:22.079Z,89.13
2019-01-25T14:40:51.142Z,87.37
2019-01-25T14:43:19.967Z,82.37
2019-01-25T14:45:48.837Z,86.20
2019-01-25T14:48:17.850Z,82.07
2019-01-25T14:50:46.993Z,80.67
2019-01-25T14:53:18.065Z,75.13
2019-01-25T14:55:46.969Z,84.93
2019-01-25T14:58:15.825Z,81.93
2019-01-25T15:00:44.857Z,83.63
2019-01-25T15:03:13.735Z,78.20
2019-01-25T15:05:42.579Z,80.80
2019-01-25T15:08:11.515Z,72.23
2019-01-25T15:10:40.503Z,72.97
2019-01-25T15:13:09.690Z,78.10
2019-01-25T15:15:38.534Z,71.60
2019-01-25T15:18:07.536Z,71.80
2019-01-25T15:20:36.490Z,65.77
2019-01-25T15:23:05.391Z,82.77
2019-01-25T15:25:34.689Z,73.13
2019-01-25T15:28:03.591Z,72.57
2019-01-25T15:30:33.431Z,69.30
2019-01-25T15:33:02.383Z,59.50
2019-01-25T15:35:31.367Z,69.33
2019-01-25T15:38:00.286Z,63.37
2019-01-25T15:40:29.495Z,73.77
2019-01-25T15:42:58.415Z,59.13
2019-01-25T15:45:27.318Z,71.33
2019-01-25T15:47:56.241Z,63.77
2019-01-25T15:50:30.701Z,60.87
2019-01-25T15:53:00.076Z,60.43
2019-01-25T15:55:30.238Z,76.30
2019-01-25T15:57:59.311Z,58.03
2019-01-25T16:00:30.211Z,55.83
2019-01-25T16:02:59.200Z,59.37
2019-01-25T16:05:28.119Z,50.87
2019-01-25T16:07:57.048Z,56.63
2019-01-25T16:10:26.011Z,58.60
2019-01-25T16:12:54.907Z,51.03
2019-01-25T16:15:31.539Z,59.30
2019-01-25T16:18:00.431Z,52.67
2019-01-25T16:20:29.376Z,54.07
2019-01-25T16:22:58.435Z,54.90
2019-01-25T16:25:29.725Z,60.37
2019-01-25T16:27:58.846Z,51.23
2019-01-25T16:30:30.226Z,49.47
2019-01-25T16:32:59.391Z,49.60
2019-01-25T16:35:28.665Z,57.07
2019-01-25T16:37:57.953Z,50.13
2019-01-25T16:40:27.562Z,49.90
2019-01-25T16:42:56.465Z,38.83
2019-01-25T16:45:28.057Z,44.23
2019-01-25T16:47:57.280Z,43.17
2019-01-25T16:50:26.255Z,41.40
2019-01-25T16:52:55.324Z,49.60
2019-01-25T16:55:24.338Z,48.60
2019-01-25T16:57:53.243Z,39.73
2019-01-25T17:00:30.907Z,39.67
2019-01-25T17:02:59.761Z,43.00
2019-01-25T17:05:29.455Z,41.60
2019-01-25T17:07:58.604Z,40.90
2019-01-25T17:10:27.730Z,34.10
2019-01-25T17:12:56.698Z,39.63
2019-01-25T17:15:26.795Z,36.37
2019-01-25T17:17:56.038Z,36.67
2019-01-25T17:20:25.123Z,36.30
2019-01-25T17:22:54.023Z,30.07
2019-01-25T17:25:23.065Z,30.97
2019-01-25T17:27:52.221Z,30.10
2019-01-25T17:30:26.613Z,30.90
2019-01-25T17:32:56.459Z,26.20
2019-01-25T17:35:25.418Z,28.03
2019-01-25T17:37:54.464Z,34.97
2019-01-25T17:40:25.886Z,28.47
2019-01-25T17:42:54.848Z,23.13
2019-01-25T17:45:25.230Z,26.83
2019-01-25T17:47:54.362Z,24.83
2019-01-25T17:50:23.560Z,24.40
2019-01-25T17:52:52.578Z,23.30
2019-01-25T17:55:21.496Z,24.07
2019-01-25T17:57:50.328Z,25.67
2019-01-25T18:00:27.148Z,25.53
2019-01-25T18:02:56.051Z,20.70
2019-01-25T18:05:25.028Z,23.63
2019-01-25T18:07:53.838Z,23.03
2019-01-25T18:10:23.206Z,22.57
2019-01-25T18:12:52.210Z,22.23
2019-01-25T18:15:21.202Z,20.97
2019-01-25T18:17:50.176Z,20.93
2019-01-25T18:20:19.222Z,21.47
2019-01-25T18:22:48.308Z,22.87
2019-01-25T18:25:24.263Z,19.93
2019-01-25T18:27:56.797Z,20.20
2019-01-25T18:30:38.526Z,19.27
2019-01-25T18:33:07.394Z,18.70
2019-01-25T18:35:36.410Z,19.30
2019-01-25T18:38:05.895Z,23.63
2019-01-25T18:40:34.898Z,22.87
2019-01-25T18:43:04.218Z,19.40
2019-01-25T18:45:33.423Z,21.73
2019-01-25T18:48:02.342Z,20.87
2019-01-25T18:50:31.319Z,20.27
2019-01-25T18:53:00.266Z,20.07
2019-01-25T18:55:29.247Z,22.13
2019-01-25T18:57:58.115Z,24.70
2019-01-25T19:00:27.092Z,24.73
2019-01-25T19:02:56.012Z,23.80
2019-01-25T19:05:24.914Z,24.80
2019-01-25T19:07:53.775Z,23.60
2019-01-25T19:10:24.489Z,18.73
2019-01-25T19:12:53.431Z,24.20
2019-01-25T19:15:25.418Z,20.37
2019-01-25T19:17:55.577Z,24.17
2019-01-25T19:20:25.567Z,24.23
2019-01-25T19:22:54.492Z,23.80
2019-01-25T19:25:23.504Z,22.20
2019-01-25T19:27:52.474Z,24.23
2019-01-25T19:30:29.999Z,25.77
2019-01-25T19:32:59.311Z,29.63
2019-01-25T19:35:28.288Z,32.47
2019-01-25T19:37:57.523Z,33.17
2019-01-25T19:40:28.019Z,27.13
2019-01-25T19:42:56.963Z,25.90
2019-01-25T19:45:25.922Z,32.17
2019-01-25T19:47:54.819Z,28.73
2019-01-25T19:50:23.902Z,33.93
2019-01-25T19:52:52.917Z,29.27
2019-01-25T19:55:23.902Z,30.40
2019-01-25T19:57:52.938Z,27.20
2019-01-25T20:00:24.674Z,31.30
2019-01-25T20:02:54.040Z,27.23
2019-01-25T20:05:23.698Z,27.97
2019-01-25T20:07:52.717Z,32.83
2019-01-25T20:10:22.017Z,29.87
2019-01-25T20:12:51.470Z,32.43
2019-01-25T20:15:20.546Z,24.50
2019-01-25T20:17:49.578Z,30.87
2019-01-25T20:20:23.574Z,22.93
2019-01-25T20:22:52.881Z,29.03
2019-01-25T20:25:21.935Z,27.23
2019-01-25T20:27:51.154Z,28.00
2019-01-25T20:30:22.796Z,26.47
2019-01-25T20:32:51.931Z,22.70
2019-01-25T20:35:22.996Z,23.90
2019-01-25T20:37:52.017Z,22.87
2019-01-25T20:40:21.418Z,19.27
2019-01-25T20:42:50.592Z,23.90
2019-01-25T20:45:27.051Z,25.55
2019-01-25T20:47:52.804Z,26.53
2019-01-25T20:50:24.399Z,18.77
2019-01-25T20:52:54.880Z,23.30
2019-01-25T20:55:24.111Z,19.43
2019-01-25T20:57:53.277Z,19.50
2019-01-25T21:00:24.816Z,20.83
2019-01-25T21:02:54.175Z,20.07
2019-01-25T21:05:25.048Z,20.10
2019-01-25T21:07:55.237Z,20.90
2019-01-25T21:10:24.624Z,19.03
2019-01-25T21:12:53.935Z,21.83
2019-01-25T21:15:24.184Z,24.40
2019-01-25T21:17:53.346Z,17.57
2019-01-25T21:20:33.858Z,20.50
2019-01-25T21:23:03.039Z,19.60
2019-01-25T21:25:32.637Z,21.23
2019-01-25T21:28:01.606Z,22.13
2019-01-25T21:30:31.773Z,16.90
2019-01-25T21:33:00.767Z,19.23
2019-01-25T21:35:29.770Z,22.40
2019-01-25T21:37:58.883Z,15.17
2019-01-25T21:40:29.574Z,16.17
2019-01-25T21:42:58.556Z,17.40
2019-01-25T21:45:30.171Z,18.20
2019-01-25T21:47:59.451Z,22.50
2019-01-25T21:50:31.050Z,23.60
2019-01-25T21:53:00.104Z,17.23
2019-01-25T21:55:29.231Z,18.73
2019-01-25T21:57:58.203Z,20.50
2019-01-25T22:00:29.133Z,19.73
2019-01-25T22:02:58.019Z,18.77
2019-01-25T22:05:27.014Z,14.57
2019-01-25T22:07:56.004Z,15.17
2019-01-25T22:10:27.410Z,18.93
2019-01-25T22:12:56.422Z,15.43
2019-01-25T22:15:25.544Z,13.63
2019-01-25T22:17:54.538Z,22.67
2019-01-25T22:20:25.610Z,19.33
2019-01-25T22:22:54.939Z,15.80
2019-01-25T22:25:24.106Z,13.90
2019-01-25T22:27:54.522Z,15.00
2019-01-25T22:30:24.732Z,16.73
2019-01-25T22:32:53.934Z,12.57
2019-01-25T22:35:23.100Z,12.97
2019-01-25T22:37:53.180Z,13.53
2019-01-25T22:40:27.511Z,19.23
2019-01-25T22:42:56.681Z,20.13
2019-01-25T22:45:27.648Z,16.90
2019-01-25T22:48:01.934Z,15.23
2019-01-25T22:50:33.047Z,21.60
2019-01-25T22:53:01.958Z,15.90
2019-01-25T22:55:30.939Z,17.57
2019-01-25T22:57:59.783Z,15.20
2019-01-25T23:01:14.523Z,19.33
2019-01-25T23:04:23.426Z,19.13
2019-01-25T23:07:03.240Z,11.03
2019-01-25T23:09:34.668Z,17.73
2019-01-25T23:12:04.024Z,17.70
2019-01-25T23:14:32.934Z,18.20
2019-01-25T23:17:01.950Z,21.47
2019-01-25T23:19:30.998Z,26.27
2019-01-25T23:21:59.991Z,19.97
2019-01-25T23:24:28.806Z,14.30
2019-01-25T23:26:57.697Z,11.47
2019-01-25T23:29:26.607Z,13.00
2019-01-25T23:31:55.520Z,14.33
2019-01-25T23:34:24.371Z,14.80
2019-01-25T23:36:53.556Z,16.87
2019-01-25T23:39:22.638Z,15.37
2019-01-25T23:41:51.579Z,14.73
2019-01-25T23:44:20.430Z,22.53
2019-01-25T23:46:49.407Z,12.87
2019-01-25T23:49:18.429Z,15.50
2019-01-25T23:51:47.257Z,18.40
2019-01-25T23:54:16.174Z,18.80
2019-01-25T23:56:45.278Z,14.37
2019-01-25T23:59:14.163Z,22.27
